Akk, Virginia
Current Conditions -  °F | °C
As of 7:55 PM on Monday 22 Dec 2014 (Local Time) from KFYJ Reporting Station
Overcast Overcast  
Wind Chill: 39°   Ceiling: 300
Heat Index: 42°   Visibility: 1.5mi
Dew Point: 40°   Wind: 5mph
Humidity: 91%   Direction: 330°NNW
Pressure: 30.1"   Gusts: NA
Location:  37.4383°N, 76.5764°W
Report Text: KFYJ 230055Z AUTO 33004KT 1 1/2SM OVC003 06/04 A3010 RMK AO2 T00550042
Loading
Personal Weather Stations






























Interactive Weather Map New forecast layout! Learn more

10-Day Weather Forecast

Advertisements
Track Severe Weather on mobile